»·PEaware :: N3096B KLGB-KTLR

N3096B :: KLGB-KTLR

FLIGHT INFORMATION

Flight Status: Arrived
Operator: Privately registered:
United States
More flights under this callsign
Pilot: Daniel B. (28719)
Aircraft: CESSNA 172 SKYHAWK
(C172)
More flights by this aircraft type
Origin: KLGB Long Beach
United States
Destination: KTLR Mefford
United States
More flights between these airports :: More routes between these airports
Route: ANAHM1 LHS
File this flight plan on PilotEdge
Remarks:
Altitude:
(Current/Filed)
12,000ft
Speed:
(Current/Filed)
115kts
Departed: 15-Jan-21 09:07 AM
Arrived: 15-Jan-21 11:04 AM
Distance/Time
Traveled:
152nm/1:56
Distance/Time
To Go:
Arrived

Flight Plot

Page will automatically refresh every two minutes.

Flight plan parsing failed; only flown route is shown


Map Options




Map Legend


Flown Route
Filed Route
Departure Airport
Arrival Airport
Navaid (VOR, NDB)
Fix

Horizontal Profiles

Position Reports

Time Latitude Longitude Heading Altitude Ground
Speed
15-Jan-21 08:31 33.819792 -118.145962 90 36ft 0kts
15-Jan-21 08:32 33.819792 -118.145961 89 36ft 0kts
15-Jan-21 08:33 33.819792 -118.145961 89 36ft 0kts
15-Jan-21 08:34 33.819792 -118.145961 89 36ft 0kts
15-Jan-21 08:35 33.819792 -118.145961 89 36ft 0kts
15-Jan-21 08:39 33.819792 -118.145962 90 36ft 0kts
15-Jan-21 08:40 33.819792 -118.145962 90 36ft 0kts
15-Jan-21 08:41 33.819792 -118.145962 90 36ft 0kts
15-Jan-21 08:42 33.819792 -118.145961 89 36ft 0kts
15-Jan-21 08:43 33.819792 -118.145960 89 36ft 0kts
15-Jan-21 08:44 33.819792 -118.145960 89 36ft 0kts
15-Jan-21 08:45 33.819792 -118.145960 89 36ft 0kts
15-Jan-21 08:47 33.819792 -118.145960 89 36ft 0kts
15-Jan-21 08:48 33.819792 -118.145960 89 36ft 0kts
15-Jan-21 08:49 33.819792 -118.145960 89 36ft 0kts
15-Jan-21 08:50 33.819792 -118.145960 89 36ft 0kts
15-Jan-21 08:51 33.819792 -118.145960 89 36ft 0kts
15-Jan-21 08:52 33.819792 -118.145960 89 36ft 0kts
15-Jan-21 08:53 33.819792 -118.145960 89 36ft 0kts
15-Jan-21 08:54 33.819792 -118.145960 89 36ft 0kts
15-Jan-21 08:55 33.819792 -118.145960 89 36ft 0kts
15-Jan-21 08:56 33.819792 -118.145960 89 36ft 0kts
15-Jan-21 08:57 33.819792 -118.145960 89 36ft 0kts
15-Jan-21 08:58 33.819792 -118.145960 89 36ft 0kts
15-Jan-21 08:59 33.819792 -118.145960 89 36ft 0kts
15-Jan-21 09:00 33.819792 -118.145960 89 36ft 0kts
15-Jan-21 09:01 33.819848 -118.146893 310 37ft 9kts
15-Jan-21 09:02 33.821624 -118.145557 90 38ft 20kts
15-Jan-21 09:03 33.821888 -118.144178 56 37ft 0kts
15-Jan-21 09:04 33.821888 -118.144179 56 37ft 0kts
15-Jan-21 09:04 33.821888 -118.144179 56 37ft 0kts
15-Jan-21 09:06 33.822687 -118.144324 271 37ft 17kts
15-Jan-21 09:06 33.822939 -118.156281 273 278ft 84kts
15-Jan-21 09:07 33.823681 -118.175482 261 917ft 88kts
15-Jan-21 09:08 33.809828 -118.189341 213 1570ft 93kts
15-Jan-21 09:09 33.790957 -118.203512 210 2332ft 94kts
15-Jan-21 09:10 33.766192 -118.221586 211 3207ft 96kts
15-Jan-21 09:11 33.735372 -118.244231 210 4231ft 97kts
15-Jan-21 09:12 33.695377 -118.270720 179 5338ft 102kts
15-Jan-21 09:13 33.663870 -118.241807 132 6336ft 94kts
15-Jan-21 09:14 33.631647 -118.206495 132 7017ft 118kts
15-Jan-21 09:15 33.585183 -118.156286 133 7004ft 128kts
15-Jan-21 09:16 33.538531 -118.101771 103 6990ft 123kts
15-Jan-21 09:17 33.567517 -118.062682 36 6987ft 109kts
15-Jan-21 09:18 33.601600 -118.057626 353 8060ft 83kts
15-Jan-21 09:19 33.633100 -118.059758 6 8905ft 82kts
15-Jan-21 09:20 33.662212 -118.058818 3 9623ft 83kts
15-Jan-21 09:21 33.687801 -118.059080 9 10197ft 84kts
15-Jan-21 09:22 33.710777 -118.055728 9 10700ft 83kts
15-Jan-21 09:23 33.732000 -118.054588 4 11219ft 78kts
15-Jan-21 09:24 33.752292 -118.057597 2 11663ft 76kts
15-Jan-21 09:25 33.771960 -118.057156 10 11984ft 84kts
15-Jan-21 09:26 33.794980 -118.050812 49 11980ft 104kts
15-Jan-21 09:27 33.795038 -118.019068 93 12000ft 113kts
15-Jan-21 09:28 33.797960 -117.989904 34 11960ft 106kts
15-Jan-21 09:29 33.821108 -118.000021 323 11964ft 122kts
15-Jan-21 09:30 33.842379 -118.024801 328 11963ft 119kts
15-Jan-21 09:31 33.863639 -118.043273 333 11975ft 116kts
15-Jan-21 09:32 33.886136 -118.057610 343 11992ft 113kts
15-Jan-21 09:33 33.908995 -118.071351 336 12000ft 116kts
15-Jan-21 09:34 33.930905 -118.088230 335 12006ft 117kts
15-Jan-21 09:35 33.952237 -118.105637 333 11977ft 119kts
15-Jan-21 09:36 33.973476 -118.123856 332 11966ft 119kts
15-Jan-21 09:37 33.994157 -118.141987 332 11959ft 119kts
15-Jan-21 09:38 34.014874 -118.159946 333 11983ft 117kts
15-Jan-21 09:39 34.035940 -118.177366 335 11988ft 117kts
15-Jan-21 09:40 34.058893 -118.193461 336 11990ft 117kts
15-Jan-21 09:41 34.082737 -118.211184 336 11993ft 117kts
15-Jan-21 09:42 34.107237 -118.229633 336 12009ft 117kts
15-Jan-21 09:43 34.133052 -118.249022 336 12030ft 118kts
15-Jan-21 09:44 34.160317 -118.271114 334 12047ft 119kts
15-Jan-21 09:45 34.189422 -118.291797 337 12032ft 120kts
15-Jan-21 09:46 34.219958 -118.312807 340 11987ft 120kts
15-Jan-21 09:47 34.252001 -118.333525 338 11970ft 119kts
15-Jan-21 09:48 34.284961 -118.356856 338 12005ft 117kts
15-Jan-21 09:49 34.319485 -118.380402 340 12040ft 117kts
15-Jan-21 09:50 34.357185 -118.397245 350 12069ft 114kts
15-Jan-21 09:51 34.396180 -118.413792 349 12031ft 116kts
15-Jan-21 09:52 34.434407 -118.436149 338 12014ft 119kts
15-Jan-21 09:53 34.472932 -118.463214 339 12041ft 117kts
15-Jan-21 09:54 34.513629 -118.491773 335 12065ft 119kts
15-Jan-21 09:55 34.557872 -118.519004 341 11823ft 115kts
15-Jan-21 09:56 34.601312 -118.541055 347 11885ft 112kts
15-Jan-21 09:57 34.637430 -118.558816 345 11873ft 114kts
15-Jan-21 09:58 34.666983 -118.572246 348 11894ft 112kts
15-Jan-21 09:59 34.696510 -118.583913 350 11937ft 110kts
15-Jan-21 10:00 34.725891 -118.595313 348 11980ft 111kts
15-Jan-21 10:01 34.754717 -118.609357 342 12007ft 114kts
15-Jan-21 10:02 34.783560 -118.625336 341 12020ft 114kts
15-Jan-21 10:03 34.811064 -118.645665 336 12008ft 117kts
15-Jan-21 10:04 34.839291 -118.665083 340 11966ft 117kts
15-Jan-21 10:05 34.867851 -118.683322 339 11953ft 115kts
15-Jan-21 10:06 34.896700 -118.699355 344 11966ft 112kts
15-Jan-21 10:07 34.925794 -118.712400 344 11978ft 111kts
15-Jan-21 10:08 34.954731 -118.725586 343 11985ft 110kts
15-Jan-21 10:09 34.983252 -118.739668 337 11987ft 111kts
15-Jan-21 10:10 35.010934 -118.756541 331 11978ft 112kts
15-Jan-21 10:11 35.039775 -118.769963 342 11970ft 111kts
15-Jan-21 10:12 35.069289 -118.782099 341 11971ft 111kts
15-Jan-21 10:13 35.098625 -118.796011 340 11918ft 113kts
15-Jan-21 10:14 35.127956 -118.809710 340 11906ft 113kts
15-Jan-21 10:15 35.157416 -118.823314 340 11903ft 112kts
15-Jan-21 10:16 35.186635 -118.836321 340 11921ft 111kts
15-Jan-21 10:17 35.215588 -118.850258 339 11932ft 111kts
15-Jan-21 10:18 35.244586 -118.864319 339 11939ft 112kts
15-Jan-21 10:19 35.273463 -118.878842 338 11931ft 112kts
15-Jan-21 10:20 35.302085 -118.894450 336 11928ft 112kts
15-Jan-21 10:21 35.330067 -118.911622 332 11925ft 112kts
15-Jan-21 10:22 35.358794 -118.926755 338 11923ft 112kts
15-Jan-21 10:23 35.387615 -118.941714 338 11919ft 112kts
15-Jan-21 10:24 35.416119 -118.957105 337 11917ft 112kts
15-Jan-21 10:25 35.444923 -118.972051 340 11909ft 112kts
15-Jan-21 10:26 35.474300 -118.984780 343 11909ft 112kts
15-Jan-21 10:27 35.503867 -118.995951 342 11936ft 110kts
15-Jan-21 10:28 35.532579 -119.009482 337 11920ft 106kts
15-Jan-21 10:29 35.554937 -119.021298 337 11272ft 79kts
15-Jan-21 10:30 35.573859 -119.031355 335 10604ft 75kts
15-Jan-21 10:31 35.593790 -119.041960 337 9917ft 79kts
15-Jan-21 10:33 35.614228 -119.052633 337 9220ft 80kts
15-Jan-21 10:34 35.634741 -119.061657 341 8531ft 77kts
15-Jan-21 10:35 35.655128 -119.069943 340 7842ft 77kts
15-Jan-21 10:36 35.674950 -119.080017 339 7222ft 77kts
15-Jan-21 10:37 35.694868 -119.090085 339 6624ft 77kts
15-Jan-21 10:38 35.714759 -119.100002 338 6035ft 77kts
15-Jan-21 10:39 35.734267 -119.110931 338 5452ft 77kts
15-Jan-21 10:40 35.753959 -119.121550 337 4863ft 78kts
15-Jan-21 10:41 35.775083 -119.133144 336 4369ft 103kts
15-Jan-21 10:42 35.804982 -119.148983 336 3962ft 118kts
15-Jan-21 10:43 35.834136 -119.164567 338 3952ft 112kts
15-Jan-21 10:44 35.863396 -119.179987 336 3969ft 118kts
15-Jan-21 10:45 35.893783 -119.195973 338 3960ft 119kts
15-Jan-21 10:46 35.924501 -119.211901 335 3943ft 119kts
15-Jan-21 10:47 35.954408 -119.228747 334 3958ft 120kts
15-Jan-21 10:47 35.979163 -119.244367 332 3948ft 120kts
15-Jan-21 10:48 36.009635 -119.260961 338 3933ft 119kts
15-Jan-21 10:50 36.045373 -119.279405 338 3938ft 118kts
15-Jan-21 10:51 36.074183 -119.299401 326 3951ft 121kts
15-Jan-21 10:51 36.097439 -119.317825 342 3860ft 117kts
15-Jan-21 10:52 36.130293 -119.321548 0 3952ft 121kts
15-Jan-21 10:53 36.160606 -119.317585 41 3567ft 97kts
15-Jan-21 10:54 36.174867 -119.289933 57 2672ft 88kts
15-Jan-21 10:55 36.187195 -119.302600 261 1932ft 107kts
15-Jan-21 10:56 36.167755 -119.322536 175 1479ft 94kts
15-Jan-21 10:57 36.152996 -119.296752 120 1307ft 98kts
15-Jan-21 10:58 36.135647 -119.270989 146 1402ft 98kts
15-Jan-21 10:59 36.123046 -119.289441 297 1266ft 100kts
15-Jan-21 11:00 36.147509 -119.309467 335 1281ft 104kts
15-Jan-21 11:01 36.170424 -119.324243 331 1176ft 76kts
15-Jan-21 11:02 36.168305 -119.336002 146 628ft 64kts
15-Jan-21 11:03 36.156949 -119.327156 178 273ft 14kts
15-Jan-21 11:04 36.156159 -119.327740 238 273ft 12kts
15-Jan-21 11:05 36.155742 -119.328148 148 273ft 0kts
15-Jan-21 11:06 36.155742 -119.328148 148 273ft 0kts
15-Jan-21 11:07 36.155742 -119.328148 148 273ft 0kts
15-Jan-21 11:08 36.155742 -119.328149 148 273ft 0kts

Navigation Log

Ident Type
Flight plan parsing failed, navigation log unavailable